Flight Track Log - Related Links

Times and Time Zones

All times are in EDT time to prevent confusion due to time zone crossing. See the CSN3690 flight status page for this flight to view local times or setup timezone preferences in your user account.

Time Position Orientation Groundspeed Altitude Reporting Facility
EDT Latitude Longitude Course Direction KTS MPH feet Rate Location/Type
04:26AM 25.8913 119.5452 248° West  Level Estimated
04:27AM 25.8474 119.4272 248° West  Level Estimated
04:28AM 25.8102 119.3275 248° West  Level Estimated
04:29AM 25.7729 119.2277 247° West  Level Estimated
04:30AM 25.7356 119.1281 247° West  Level Estimated
04:31AM 25.6982 119.0285 247° West  Level Estimated
04:32AM 25.6607 118.9290 247° West  Level Estimated
04:33AM 25.6232 118.8296 247° West  Level Estimated
04:34AM 25.5856 118.7302 247° West  Level Estimated
04:35AM 25.5479 118.6308 247° West  Level Estimated
04:36AM 25.5102 118.5316 247° West  Level Estimated
04:37AM 25.4778 118.4467 247° West  Level Estimated
04:38AM 25.4454 118.3619 247° West  Level Estimated
04:39AM 25.4130 118.2772 247° West  Level Estimated
04:40AM 25.3805 118.1925 247° West  Level Estimated
04:41AM 25.3480 118.1078 247° West  Level Estimated
04:42AM 25.3154 118.0232 247° West  Level Estimated
04:43AM 25.2828 117.9386 247° West  Level Estimated
04:44AM 25.2502 117.8541 247° West  Level Estimated
04:45AM 25.2174 117.7696 247° West  Level Estimated
04:46AM 25.1847 117.6851 247° West  Level Estimated
04:47AM 25.1518 117.6007 247° West  Level Estimated
04:48AM 25.1190 117.5164 247° West  Level Estimated
04:49AM 25.0861 117.4321 247° West  Level Estimated
04:50AM 25.0531 117.3478 247° West  Level Estimated
04:51AM 25.0201 117.2636 247° West  Level Estimated
04:52AM 24.9871 117.1795 247° West  Level Estimated
04:53AM 24.9540 117.0953 247° West  Level Estimated
04:54AM 24.9208 117.0113 247° West  Level Estimated
04:55AM 24.8876 116.9272 246° West  Level Estimated
04:56AM 24.8544 116.8432 246° West  Level Estimated
04:57AM 24.8211 116.7593 246° West  Level Estimated
04:58AM 24.7878 116.6754 246° West  Level Estimated
04:59AM 24.7544 116.5916 246° West  Level Estimated
05:00AM 24.7209 116.5078 246° West  Level Estimated
05:01AM 24.6875 116.4240 246° West  Level Estimated
05:02AM 24.6539 116.3403 246° West  Level Estimated
05:03AM 24.6204 116.2566 246° West  Level Estimated
05:04AM 24.5868 116.1730 246° West  Level Estimated
05:05AM 24.5531 116.0894 246° West  Level Estimated
05:06AM 24.5194 116.0059 246° West  Level Estimated
05:07AM 24.4856 115.9224 246° West  Level Estimated
05:08AM 24.4519 115.8389 246° West  Level Estimated
05:09AM 24.4180 115.7555 246° West  Level Estimated
05:10AM 24.3841 115.6722 246° West  Level Estimated
05:11AM 24.3502 115.5889 246° West  Level Estimated
05:12AM 24.3162 115.5056 246° West  Level Estimated
05:13AM 24.2822 115.4224 246° West  Level Estimated
05:14AM 24.2481 115.3392 246° West  Level Estimated
05:15AM 24.2140 115.2561 246° West  Level Estimated
05:16AM 24.1798 115.1730 246° West  Level Estimated
05:17AM 24.1456 115.0899 246° West  Level Estimated
05:18AM 24.1114 115.0069 246° West  Level Estimated
05:19AM 24.0771 114.9240 246° West  Level Estimated
05:20AM 24.0427 114.8411 246° West  Level Estimated
05:21AM 24.0083 114.7582 246° West  Level Estimated
05:22AM 23.9739 114.6754 246° West  Level Estimated
05:23AM 23.9394 114.5926 246° West  Level Estimated
05:24AM 23.9049 114.5099 245° Southwest  Level Estimated
05:25AM 23.8703 114.4272 245° Southwest  Level Estimated
05:26AM 23.8357 114.3445 245° Southwest  Level Estimated
05:27AM 23.8011 114.2619 245° Southwest  Level Estimated
05:28AM 23.7664 114.1794 245° Southwest  Level Estimated
05:29AM 23.7317 114.0969 245° Southwest  Level Estimated
05:30AM 23.6969 114.0144 245° Southwest  Level Estimated
05:31AM 23.6621 113.9320 245° Southwest  Level Estimated
05:32AM 23.6272 113.8496 245° Southwest  Level Estimated
05:33AM 23.5923 113.7673 245° Southwest  Level Estimated
05:34AM 23.5573 113.6850 245° Southwest  Level Estimated
05:35AM 23.5223 113.6027 245° Southwest  Level Estimated
05:36AM 23.4873 113.5205 245° Southwest  Level Estimated
05:37AM 23.4497 113.4326 245° Southwest  Level Estimated
05:38AM 23.4121 113.3447 245° Southwest  Level Estimated
05:39AM 23.3924 113.2988 245° Southwest  Level Estimated
05:40AM 23.3924 113.2988 North  Level Estimated
05:41AM 23.3924 113.2988 North  Level Estimated

Login

Don't have an account? Register now (free) for customized features, flight alerts, and more!